createdAt,value
2022-11-28T00:01:27.727Z,100813.78
2022-11-28T00:03:54.456Z,100813.53
2022-11-28T00:06:21.608Z,100781.94
2022-11-28T00:08:48.899Z,100783.31
2022-11-28T00:11:17.235Z,100788.63
2022-11-28T00:13:44.990Z,100804.34
2022-11-28T00:16:18.625Z,100800.94
2022-11-28T00:18:45.570Z,100799.03
2022-11-28T00:21:14.091Z,100774.41
2022-11-28T00:23:42.502Z,100800.91
2022-11-28T00:26:12.875Z,100790.53
2022-11-28T00:28:39.691Z,100783.72
2022-11-28T00:31:06.937Z,100778.50
2022-11-28T00:33:34.159Z,100769.75
2022-11-28T00:36:02.772Z,100767.88
2022-11-28T00:38:30.000Z,100763.78
2022-11-28T00:41:11.482Z,100762.66
2022-11-28T00:43:38.203Z,100763.78
2022-11-28T00:46:05.140Z,100761.28
2022-11-28T00:48:33.335Z,100750.34
2022-11-28T00:51:16.451Z,100747.50
2022-11-28T00:53:45.229Z,100748.44
2022-11-28T00:56:14.196Z,100724.81
2022-11-28T00:58:42.125Z,100737.94
2022-11-28T01:01:20.952Z,100725.22
2022-11-28T01:03:49.944Z,100706.50
2022-11-28T01:06:28.176Z,100741.03
2022-11-28T01:08:55.800Z,100720.28
2022-11-28T01:16:40.067Z,100622.53
2022-11-28T01:19:07.670Z,100694.72
2022-11-28T01:21:35.624Z,100725.59
2022-11-28T01:24:02.335Z,100706.88
2022-11-28T01:26:31.215Z,100716.31
2022-11-28T01:29:00.122Z,100736.38
2022-11-28T01:31:28.939Z,100690.34
2022-11-28T01:33:56.488Z,100685.56
2022-11-28T01:36:24.074Z,100712.72
2022-11-28T01:38:51.434Z,100645.66
2022-11-28T01:41:22.472Z,100633.66
2022-11-28T01:44:13.897Z,100705.03
2022-11-28T01:46:40.903Z,100701.09
2022-11-28T01:49:14.364Z,100684.16
2022-11-28T01:51:44.999Z,100696.44
2022-11-28T01:54:13.238Z,100675.38
2022-11-28T01:56:48.019Z,100553.66
2022-11-28T01:59:15.831Z,100665.28
2022-11-28T02:01:47.869Z,100683.59
2022-11-28T02:04:14.912Z,100696.66
2022-11-28T02:06:42.409Z,100682.47
2022-11-28T02:09:16.671Z,100689.41
2022-11-28T02:11:55.055Z,100686.69
2022-11-28T02:15:09.489Z,100683.25
2022-11-28T02:17:58.409Z,100640.56
2022-11-28T02:20:37.254Z,100687.94
2022-11-28T02:26:07.994Z,100681.09
2022-11-28T02:28:53.221Z,100688.88
2022-11-28T02:31:29.005Z,100686.16
2022-11-28T02:33:57.467Z,100676.72
2022-11-28T02:36:46.027Z,100683.56
2022-11-28T02:39:42.768Z,100665.53
2022-11-28T02:42:19.350Z,100674.53
2022-11-28T02:44:55.772Z,100688.06
2022-11-28T02:47:34.181Z,100667.03
2022-11-28T02:50:10.120Z,100660.47
2022-11-28T02:52:39.952Z,100676.03
2022-11-28T02:55:08.402Z,100669.88
2022-11-28T02:57:38.045Z,100675.22
2022-11-28T03:00:33.277Z,100642.84
2022-11-28T03:03:15.722Z,100667.56
2022-11-28T03:05:57.446Z,100652.69
2022-11-28T03:09:00.191Z,100654.03
2022-11-28T03:11:35.538Z,100658.81
2022-11-28T03:14:15.761Z,100663.84
2022-11-28T03:16:52.270Z,100669.06
2022-11-28T03:19:34.659Z,100644.34
2022-11-28T03:22:01.381Z,100669.22
2022-11-28T03:24:41.040Z,100646.13
2022-11-28T03:27:24.317Z,100656.81
2022-11-28T03:29:55.738Z,100650.22
2022-11-28T03:32:28.545Z,100681.94
2022-11-28T03:35:04.000Z,100675.09
2022-11-28T03:37:35.719Z,100678.09
2022-11-28T03:40:08.018Z,100690.66
2022-11-28T03:42:41.643Z,100673.72
2022-11-28T03:45:17.920Z,100670.72
2022-11-28T03:47:48.130Z,100681.38
2022-11-28T03:50:33.934Z,100664.97
2022-11-28T03:53:08.797Z,100658.69
2022-11-28T03:55:48.141Z,100665.41
2022-11-28T03:58:27.323Z,100670.44
2022-11-28T04:01:26.466Z,100672.91
2022-11-28T04:04:02.265Z,100670.88
2022-11-28T04:06:56.777Z,100628.69
2022-11-28T04:09:51.013Z,100640.28
2022-11-28T04:15:02.719Z,100613.16
2022-11-28T04:20:38.415Z,100662.28
2022-11-28T04:23:12.116Z,100675.38
2022-11-28T04:25:42.825Z,100684.66
2022-11-28T04:28:14.246Z,100656.91
2022-11-28T04:30:44.012Z,100671.41
2022-11-28T04:33:13.371Z,100662.94
2022-11-28T04:35:44.511Z,100674.94
2022-11-28T04:38:13.243Z,100640.06
2022-11-28T04:41:18.241Z,100667.75
2022-11-28T04:43:50.860Z,100657.06
2022-11-28T04:46:27.678Z,100666.78
2022-11-28T04:48:54.654Z,100644.94
2022-11-28T04:51:21.258Z,100658.16
2022-11-28T04:53:48.000Z,100650.38
2022-11-28T04:56:21.911Z,100650.25
2022-11-28T04:58:50.640Z,100626.25
2022-11-28T05:01:25.852Z,100655.44
2022-11-28T05:03:53.853Z,100628.97
2022-11-28T05:06:29.206Z,100630.91
2022-11-28T05:08:56.299Z,100655.16
2022-11-28T05:11:22.981Z,100639.75
2022-11-28T05:13:49.663Z,100647.41
2022-11-28T05:16:17.488Z,100652.47
2022-11-28T05:18:44.548Z,100658.88
2022-11-28T05:21:11.887Z,100647.13
2022-11-28T05:23:40.957Z,100661.47
2022-11-28T05:26:09.173Z,100667.47
2022-11-28T05:28:35.811Z,100649.63
2022-11-28T05:31:03.193Z,100673.22
2022-11-28T05:33:31.024Z,100662.16
2022-11-28T05:36:13.739Z,100659.97
2022-11-28T05:38:41.087Z,100544.38
2022-11-28T05:41:08.367Z,100659.69
2022-11-28T05:43:35.541Z,100666.53
2022-11-28T05:46:04.870Z,100644.28
2022-11-28T05:48:31.862Z,100659.00
2022-11-28T05:50:59.129Z,100657.06
2022-11-28T05:53:26.116Z,100643.16
2022-11-28T05:55:52.872Z,100665.56
2022-11-28T05:58:19.504Z,100681.53
2022-11-28T06:00:46.240Z,100657.38
2022-11-28T06:03:14.516Z,100648.22
2022-11-28T06:05:44.082Z,100672.94
2022-11-28T06:08:14.081Z,100646.72
2022-11-28T06:10:41.710Z,100672.38
2022-11-28T06:13:10.891Z,100578.38
2022-11-28T06:19:13.156Z,100552.88
2022-11-28T06:22:11.208Z,100551.63
2022-11-28T06:24:56.049Z,100678.13
2022-11-28T06:27:52.391Z,100548.66
2022-11-28T06:49:07.472Z,100623.84
2022-11-28T06:51:47.282Z,100573.22
2022-11-28T07:00:42.172Z,100533.63
2022-11-28T07:03:41.418Z,100576.47
2022-11-28T07:10:32.758Z,100619.19
2022-11-28T07:29:43.132Z,100616.75
2022-11-28T07:32:10.417Z,100618.25
2022-11-28T07:34:37.232Z,100604.88
2022-11-28T07:37:03.862Z,100696.47
2022-11-28T07:39:30.510Z,100668.34
2022-11-28T07:41:58.471Z,100647.47
2022-11-28T07:44:26.061Z,100648.56
2022-11-28T07:46:53.291Z,100700.03
2022-11-28T07:49:20.383Z,100675.19
2022-11-28T07:51:47.990Z,100669.75
2022-11-28T07:54:14.905Z,100706.47
2022-11-28T07:57:11.901Z,100671.50
2022-11-28T07:59:31.661Z,100683.69
2022-11-28T08:01:59.224Z,100665.22
2022-11-28T08:04:26.971Z,100709.19
2022-11-28T08:06:55.417Z,100706.19
2022-11-28T08:09:22.482Z,100699.38
2022-11-28T08:11:51.580Z,100713.41
2022-11-28T08:14:22.640Z,100715.59
2022-11-28T08:19:33.738Z,100722.97
2022-11-28T08:27:26.774Z,100665.59
2022-11-28T08:51:26.986Z,100513.03
2022-11-28T08:53:59.388Z,100574.53
2022-11-28T09:23:38.625Z,100694.25
2022-11-28T10:08:14.370Z,100733.66
2022-11-28T10:15:03.066Z,100725.41
2022-11-28T10:22:01.106Z,100719.63
2022-11-28T11:34:06.208Z,100574.00
2022-11-28T11:36:37.333Z,100535.56
2022-11-28T11:39:16.008Z,100716.88
2022-11-28T11:41:53.912Z,100594.31
2022-11-28T11:44:34.843Z,100707.28
2022-11-28T11:47:28.084Z,100718.91
2022-11-28T11:56:43.189Z,100637.75
2022-11-28T12:00:03.210Z,100717.28
2022-11-28T12:03:05.812Z,100577.94
2022-11-28T12:06:14.679Z,100601.84
2022-11-28T12:09:00.202Z,100730.16
2022-11-28T12:12:39.423Z,100616.28
2022-11-28T12:15:55.238Z,100527.31
2022-11-28T12:18:54.311Z,100673.44
2022-11-28T12:25:58.140Z,100723.66
2022-11-28T13:02:56.646Z,100720.31
2022-11-28T13:08:16.224Z,100721.81
2022-11-28T13:10:47.019Z,100646.41
2022-11-28T13:13:35.752Z,100723.81
2022-11-28T13:16:27.407Z,100654.94
2022-11-28T13:19:09.666Z,100726.41
2022-11-28T13:21:36.239Z,100720.09
2022-11-28T13:24:36.882Z,100711.38
2022-11-28T13:27:33.611Z,100729.84
2022-11-28T13:30:26.048Z,100721.50
2022-11-28T13:33:07.360Z,100728.34
2022-11-28T13:35:35.506Z,100702.47
2022-11-28T13:38:35.723Z,100726.50
2022-11-28T13:41:35.386Z,100720.91
2022-11-28T13:49:26.765Z,100719.03
2022-11-28T13:52:32.597Z,100725.38
2022-11-28T13:55:01.158Z,100734.22
2022-11-28T14:00:27.808Z,100743.00
2022-11-28T14:03:11.281Z,100698.50
2022-11-28T14:08:32.972Z,100608.88
2022-11-28T14:11:27.947Z,100747.22
2022-11-28T14:17:05.278Z,100748.38
2022-11-28T14:20:13.359Z,100746.56
2022-11-28T14:23:03.047Z,100717.69
2022-11-28T14:26:13.564Z,100734.44
2022-11-28T14:32:36.274Z,100657.09
2022-11-28T14:35:27.500Z,100673.50
2022-11-28T14:37:55.917Z,100602.28
2022-11-28T14:52:16.046Z,100759.59
2022-11-28T14:58:40.151Z,100672.72
2022-11-28T15:01:14.449Z,100773.41
2022-11-28T15:03:54.102Z,100740.53
2022-11-28T15:08:59.267Z,100770.81
2022-11-28T15:12:08.184Z,100774.25
2022-11-28T15:14:56.298Z,100648.81
2022-11-28T15:17:34.423Z,100666.47
2022-11-28T15:28:05.210Z,100746.09
2022-11-28T15:30:34.505Z,100665.66
2022-11-28T15:33:05.726Z,100673.16
2022-11-28T15:35:39.803Z,100742.56
2022-11-28T15:38:18.252Z,100748.81
2022-11-28T15:48:47.215Z,100786.50
2022-11-28T15:51:24.505Z,100790.91
2022-11-28T15:54:01.460Z,100687.94
2022-11-28T15:56:31.172Z,100753.91
2022-11-28T15:59:20.804Z,100793.50
2022-11-28T16:01:48.223Z,100755.41
2022-11-28T16:12:20.339Z,100774.56
2022-11-28T16:17:59.998Z,100684.06
2022-11-28T16:20:37.208Z,100753.41
2022-11-28T16:23:21.428Z,100691.56
2022-11-28T16:29:02.644Z,100679.81
2022-11-28T16:31:35.080Z,100704.94
2022-11-28T16:34:03.941Z,100768.97
2022-11-28T17:41:51.331Z,100788.47
2022-11-28T17:44:23.050Z,100754.19
2022-11-28T17:46:51.719Z,100852.50
2022-11-28T17:49:26.569Z,100832.81
2022-11-28T17:51:55.314Z,100847.13
2022-11-28T17:54:24.079Z,100857.38
2022-11-28T17:56:56.858Z,100839.69
2022-11-28T17:59:24.447Z,100837.91
2022-11-28T18:01:51.333Z,100836.72
2022-11-28T18:04:18.321Z,100843.81
2022-11-28T18:06:46.449Z,100832.88
2022-11-28T18:09:14.860Z,100861.97
2022-11-28T18:11:45.420Z,100854.59
2022-11-28T18:17:21.875Z,100852.28
2022-11-28T18:19:57.919Z,100808.19
2022-11-28T18:22:30.388Z,100864.75
2022-11-28T18:25:09.073Z,100875.28
2022-11-28T18:27:49.042Z,100865.31
2022-11-28T18:30:27.869Z,100872.00
2022-11-28T18:32:57.989Z,100870.06
2022-11-28T18:35:27.981Z,100865.72
2022-11-28T18:40:45.859Z,100830.75
2022-11-28T18:43:12.829Z,100841.69
2022-11-28T18:45:39.627Z,100877.22
2022-11-28T18:48:13.253Z,100812.50
2022-11-28T18:56:20.333Z,100872.00
2022-11-28T19:15:01.630Z,100894.63
2022-11-28T19:20:18.813Z,100883.97
2022-11-28T19:22:51.532Z,100808.56
2022-11-28T19:25:18.605Z,100790.53
2022-11-28T19:27:45.472Z,100901.84
2022-11-28T19:30:16.498Z,100909.66
2022-11-28T19:32:43.682Z,100907.88
2022-11-28T19:35:10.480Z,100913.91
2022-11-28T19:37:37.315Z,100903.50
2022-11-28T19:40:04.547Z,100900.50
2022-11-28T19:42:31.270Z,100913.91
2022-11-28T19:44:58.148Z,100913.53
2022-11-28T19:47:35.161Z,100916.38
2022-11-28T19:50:08.360Z,100917.84
2022-11-28T19:55:30.732Z,100922.56
2022-11-28T19:58:03.114Z,100922.69
2022-11-28T20:00:36.611Z,100912.97
2022-11-28T20:03:08.976Z,100919.25
2022-11-28T20:11:42.121Z,100934.22
2022-11-28T20:22:33.386Z,100935.88
2022-11-28T20:25:00.645Z,100879.28
2022-11-28T20:27:28.109Z,100948.19
2022-11-28T20:29:54.808Z,100947.09
2022-11-28T20:32:24.067Z,100939.19
2022-11-28T20:34:50.737Z,100939.56
2022-11-28T20:45:48.123Z,100949.31
2022-11-28T20:48:22.801Z,100930.06
2022-11-28T20:57:19.563Z,100960.00
2022-11-28T20:59:32.044Z,100825.47
2022-11-28T21:01:58.854Z,100787.91
2022-11-28T21:04:25.767Z,100796.63
2022-11-28T21:06:52.658Z,100752.94
2022-11-28T21:09:20.636Z,100916.38
2022-11-28T21:11:58.877Z,100963.44
2022-11-28T21:14:27.183Z,100963.31
2022-11-28T21:16:54.452Z,100949.47
2022-11-28T21:19:21.489Z,100965.91
2022-11-28T21:21:48.187Z,100963.44
2022-11-28T21:24:14.868Z,100962.88
2022-11-28T21:26:46.557Z,100946.22
2022-11-28T21:29:18.128Z,100958.81
2022-11-28T21:31:46.001Z,100973.03
2022-11-28T21:34:14.814Z,100943.50
2022-11-28T21:36:42.674Z,100953.91
2022-11-28T21:39:14.219Z,100948.16
2022-11-28T21:41:41.017Z,100980.44
2022-11-28T21:44:07.863Z,100982.22
2022-11-28T21:46:34.550Z,100975.25
2022-11-28T21:49:01.999Z,100977.84
2022-11-28T21:51:28.881Z,100953.53
2022-11-28T21:53:57.585Z,100976.63
2022-11-28T21:56:25.361Z,100943.00
2022-11-28T21:58:54.897Z,100973.75
2022-11-28T22:01:21.822Z,100936.53
2022-11-28T22:03:49.120Z,100964.47
2022-11-28T22:06:18.425Z,100979.09
2022-11-28T22:08:45.312Z,100939.16
2022-11-28T22:11:13.530Z,100964.88
2022-11-28T22:13:42.434Z,100954.06
2022-11-28T22:16:18.835Z,100987.88
2022-11-28T22:18:49.279Z,100961.44
2022-11-28T22:24:03.927Z,100969.56
2022-11-28T22:26:30.591Z,100917.19
2022-11-28T22:28:59.000Z,100968.75
2022-11-28T22:31:25.986Z,100978.56
2022-11-28T22:33:53.821Z,100991.16
2022-11-28T22:36:21.605Z,100969.97
2022-11-28T22:38:49.726Z,101004.84
2022-11-28T22:41:26.227Z,100996.53
2022-11-28T22:43:56.790Z,100994.59
2022-11-28T22:46:23.901Z,100968.06
2022-11-28T22:49:03.801Z,100995.97
2022-11-28T22:51:31.929Z,100986.13
2022-11-28T22:54:01.667Z,100987.50
2022-11-28T22:56:30.386Z,101001.19
2022-11-28T22:58:57.136Z,101001.19
2022-11-28T23:01:30.012Z,100985.72
2022-11-28T23:03:57.064Z,101001.31
2022-11-28T23:06:26.938Z,101006.38
2022-11-28T23:08:55.866Z,101003.50
2022-11-28T23:11:25.784Z,101009.00
2022-11-28T23:13:53.345Z,100999.66
2022-11-28T23:16:23.051Z,101008.19
2022-11-28T23:18:55.528Z,101007.63
2022-11-28T23:21:24.121Z,101005.69
2022-11-28T23:23:51.027Z,100968.91
2022-11-28T23:26:21.008Z,101003.09
2022-11-28T23:28:48.375Z,101012.41
2022-11-28T23:31:21.782Z,101001.47
2022-11-28T23:33:48.821Z,100988.75
2022-11-28T23:36:19.249Z,101013.38
2022-11-28T23:38:47.629Z,101009.97
2022-11-28T23:41:14.788Z,101015.16
2022-11-28T23:43:41.671Z,101000.50
2022-11-28T23:46:10.426Z,101012.69
2022-11-28T23:48:41.177Z,100998.06
2022-11-28T23:51:15.306Z,101019.94
2022-11-28T23:53:42.932Z,100999.31
2022-11-28T23:56:21.439Z,101025.59
2022-11-28T23:58:49.334Z,100915.66
